sensor_id;sensor_type;location;lat;lon;timestamp;P1;durP1;ratioP1;P2;durP2;ratioP2
5465;SDS011;2755;50.728;7.108;2023-06-10T00:01:12;169.50;;;106.80;;
5465;SDS011;2755;50.728;7.108;2023-06-10T00:03:38;175.90;;;122.70;;
5465;SDS011;2755;50.728;7.108;2023-06-10T00:06:06;176.60;;;124.50;;
5465;SDS011;2755;50.728;7.108;2023-06-10T00:08:31;172.53;;;117.53;;
5465;SDS011;2755;50.728;7.108;2023-06-10T00:10:58;171.80;;;118.70;;
5465;SDS011;2755;50.728;7.108;2023-06-10T00:13:23;177.67;;;130.97;;
5465;SDS011;2755;50.728;7.108;2023-06-10T00:15:50;188.00;;;149.30;;
5465;SDS011;2755;50.728;7.108;2023-06-10T00:18:16;189.80;;;155.73;;
5465;SDS011;2755;50.728;7.108;2023-06-10T00:20:43;200.20;;;170.77;;
5465;SDS011;2755;50.728;7.108;2023-06-10T00:23:09;190.73;;;156.17;;
5465;SDS011;2755;50.728;7.108;2023-06-10T00:25:34;195.87;;;168.07;;
5465;SDS011;2755;50.728;7.108;2023-06-10T00:28:00;191.23;;;157.93;;
5465;SDS011;2755;50.728;7.108;2023-06-10T00:30:26;193.80;;;161.43;;
5465;SDS011;2755;50.728;7.108;2023-06-10T00:32:52;189.93;;;153.03;;
5465;SDS011;2755;50.728;7.108;2023-06-10T00:35:18;185.97;;;147.03;;
5465;SDS011;2755;50.728;7.108;2023-06-10T00:37:44;182.37;;;140.13;;
5465;SDS011;2755;50.728;7.108;2023-06-10T00:40:10;176.73;;;133.83;;
5465;SDS011;2755;50.728;7.108;2023-06-10T00:42:36;176.47;;;132.50;;
5465;SDS011;2755;50.728;7.108;2023-06-10T00:45:02;173.47;;;127.20;;
5465;SDS011;2755;50.728;7.108;2023-06-10T00:47:28;178.97;;;134.77;;
5465;SDS011;2755;50.728;7.108;2023-06-10T00:49:54;178.07;;;132.63;;
5465;SDS011;2755;50.728;7.108;2023-06-10T00:52:20;178.87;;;135.90;;
5465;SDS011;2755;50.728;7.108;2023-06-10T00:54:50;180.50;;;135.17;;
5465;SDS011;2755;50.728;7.108;2023-06-10T00:57:17;180.43;;;134.43;;
5465;SDS011;2755;50.728;7.108;2023-06-10T00:59:43;176.53;;;128.83;;
5465;SDS011;2755;50.728;7.108;2023-06-10T01:02:14;178.77;;;130.27;;
5465;SDS011;2755;50.728;7.108;2023-06-10T01:04:40;174.73;;;126.67;;
5465;SDS011;2755;50.728;7.108;2023-06-10T01:07:25;174.93;;;126.67;;
5465;SDS011;2755;50.728;7.108;2023-06-10T01:09:59;174.33;;;126.03;;
5465;SDS011;2755;50.728;7.108;2023-06-10T01:14:52;181.47;;;135.27;;
5465;SDS011;2755;50.728;7.108;2023-06-10T01:17:19;179.57;;;134.47;;
5465;SDS011;2755;50.728;7.108;2023-06-10T01:19:52;186.87;;;145.07;;
5465;SDS011;2755;50.728;7.108;2023-06-10T01:22:20;185.77;;;143.67;;
5465;SDS011;2755;50.728;7.108;2023-06-10T01:24:47;183.03;;;138.33;;
5465;SDS011;2755;50.728;7.108;2023-06-10T01:27:15;189.63;;;146.77;;
5465;SDS011;2755;50.728;7.108;2023-06-10T01:29:46;192.30;;;150.63;;
5465;SDS011;2755;50.728;7.108;2023-06-10T01:32:27;199.07;;;160.37;;
5465;SDS011;2755;50.728;7.108;2023-06-10T01:34:58;208.90;;;177.70;;
5465;SDS011;2755;50.728;7.108;2023-06-10T01:37:25;218.57;;;192.37;;
5465;SDS011;2755;50.728;7.108;2023-06-10T01:39:51;231.47;;;206.40;;
5465;SDS011;2755;50.728;7.108;2023-06-10T01:42:19;230.60;;;205.40;;
5465;SDS011;2755;50.728;7.108;2023-06-10T01:44:46;247.83;;;221.47;;
5465;SDS011;2755;50.728;7.108;2023-06-10T01:47:12;248.27;;;222.10;;
5465;SDS011;2755;50.728;7.108;2023-06-10T01:49:38;245.33;;;219.20;;
5465;SDS011;2755;50.728;7.108;2023-06-10T01:52:03;235.73;;;210.20;;
5465;SDS011;2755;50.728;7.108;2023-06-10T01:54:29;220.40;;;195.50;;
5465;SDS011;2755;50.728;7.108;2023-06-10T01:56:55;239.37;;;213.47;;
5465;SDS011;2755;50.728;7.108;2023-06-10T01:59:21;238.07;;;212.40;;
5465;SDS011;2755;50.728;7.108;2023-06-10T02:01:46;232.07;;;206.73;;
5465;SDS011;2755;50.728;7.108;2023-06-10T02:04:12;219.50;;;188.47;;
5465;SDS011;2755;50.728;7.108;2023-06-10T02:06:37;216.40;;;181.60;;
5465;SDS011;2755;50.728;7.108;2023-06-10T02:09:03;215.37;;;183.10;;
5465;SDS011;2755;50.728;7.108;2023-06-10T02:11:28;215.93;;;187.07;;
5465;SDS011;2755;50.728;7.108;2023-06-10T02:13:54;209.97;;;174.37;;
5465;SDS011;2755;50.728;7.108;2023-06-10T02:16:20;213.67;;;188.67;;
5465;SDS011;2755;50.728;7.108;2023-06-10T02:18:46;215.07;;;191.00;;
5465;SDS011;2755;50.728;7.108;2023-06-10T02:21:13;237.40;;;212.43;;
5465;SDS011;2755;50.728;7.108;2023-06-10T02:23:39;245.63;;;220.27;;
5465;SDS011;2755;50.728;7.108;2023-06-10T02:26:05;235.07;;;210.27;;
5465;SDS011;2755;50.728;7.108;2023-06-10T02:28:31;226.37;;;202.03;;
5465;SDS011;2755;50.728;7.108;2023-06-10T02:30:57;211.77;;;187.17;;
5465;SDS011;2755;50.728;7.108;2023-06-10T02:33:23;203.73;;;173.80;;
5465;SDS011;2755;50.728;7.108;2023-06-10T02:35:49;188.40;;;143.50;;
5465;SDS011;2755;50.728;7.108;2023-06-10T02:38:15;187.03;;;142.23;;
5465;SDS011;2755;50.728;7.108;2023-06-10T02:40:42;181.77;;;132.30;;
5465;SDS011;2755;50.728;7.108;2023-06-10T02:43:08;177.67;;;128.30;;
5465;SDS011;2755;50.728;7.108;2023-06-10T02:45:34;171.43;;;112.67;;
5465;SDS011;2755;50.728;7.108;2023-06-10T02:47:59;176.97;;;122.87;;
5465;SDS011;2755;50.728;7.108;2023-06-10T02:50:25;185.60;;;130.70;;
5465;SDS011;2755;50.728;7.108;2023-06-10T02:52:50;182.37;;;126.27;;
5465;SDS011;2755;50.728;7.108;2023-06-10T02:55:16;184.53;;;130.20;;
5465;SDS011;2755;50.728;7.108;2023-06-10T02:57:42;187.40;;;133.90;;
5465;SDS011;2755;50.728;7.108;2023-06-10T03:00:08;189.10;;;133.93;;
5465;SDS011;2755;50.728;7.108;2023-06-10T03:02:35;183.30;;;129.17;;
5465;SDS011;2755;50.728;7.108;2023-06-10T03:05:04;193.67;;;149.07;;
5465;SDS011;2755;50.728;7.108;2023-06-10T03:07:34;189.33;;;143.80;;
5465;SDS011;2755;50.728;7.108;2023-06-10T03:10:00;194.60;;;151.00;;
5465;SDS011;2755;50.728;7.108;2023-06-10T03:12:26;197.57;;;157.93;;
5465;SDS011;2755;50.728;7.108;2023-06-10T03:14:51;212.93;;;186.70;;
5465;SDS011;2755;50.728;7.108;2023-06-10T03:17:17;227.63;;;203.07;;
5465;SDS011;2755;50.728;7.108;2023-06-10T03:19:43;237.87;;;212.93;;
5465;SDS011;2755;50.728;7.108;2023-06-10T03:22:12;235.60;;;211.00;;
5465;SDS011;2755;50.728;7.108;2023-06-10T03:24:39;233.87;;;209.47;;
5465;SDS011;2755;50.728;7.108;2023-06-10T03:27:06;228.13;;;204.07;;
5465;SDS011;2755;50.728;7.108;2023-06-10T03:29:32;213.40;;;190.00;;
5465;SDS011;2755;50.728;7.108;2023-06-10T03:31:58;228.53;;;204.23;;
5465;SDS011;2755;50.728;7.108;2023-06-10T03:34:23;227.37;;;203.57;;
5465;SDS011;2755;50.728;7.108;2023-06-10T03:36:49;247.43;;;222.57;;
5465;SDS011;2755;50.728;7.108;2023-06-10T03:39:15;250.37;;;225.40;;
5465;SDS011;2755;50.728;7.108;2023-06-10T03:41:41;236.70;;;212.80;;
5465;SDS011;2755;50.728;7.108;2023-06-10T03:44:07;227.33;;;203.97;;
5465;SDS011;2755;50.728;7.108;2023-06-10T03:46:32;199.83;;;176.80;;
5465;SDS011;2755;50.728;7.108;2023-06-10T03:48:58;189.23;;;154.37;;
5465;SDS011;2755;50.728;7.108;2023-06-10T03:51:25;182.40;;;143.97;;
5465;SDS011;2755;50.728;7.108;2023-06-10T03:53:51;181.30;;;140.27;;
5465;SDS011;2755;50.728;7.108;2023-06-10T03:56:17;184.20;;;144.83;;
5465;SDS011;2755;50.728;7.108;2023-06-10T03:58:42;176.30;;;131.33;;
5465;SDS011;2755;50.728;7.108;2023-06-10T04:01:08;179.20;;;138.33;;
5465;SDS011;2755;50.728;7.108;2023-06-10T04:03:34;176.77;;;130.63;;
5465;SDS011;2755;50.728;7.108;2023-06-10T04:05:59;178.17;;;133.03;;
5465;SDS011;2755;50.728;7.108;2023-06-10T04:08:25;179.57;;;132.93;;
5465;SDS011;2755;50.728;7.108;2023-06-10T04:10:50;180.80;;;133.57;;
5465;SDS011;2755;50.728;7.108;2023-06-10T04:13:16;188.13;;;143.00;;
5465;SDS011;2755;50.728;7.108;2023-06-10T04:15:42;188.47;;;143.30;;
5465;SDS011;2755;50.728;7.108;2023-06-10T04:18:08;189.20;;;143.90;;
5465;SDS011;2755;50.728;7.108;2023-06-10T04:20:33;188.33;;;138.67;;
5465;SDS011;2755;50.728;7.108;2023-06-10T04:22:59;186.53;;;139.33;;
5465;SDS011;2755;50.728;7.108;2023-06-10T04:25:24;186.43;;;136.67;;
5465;SDS011;2755;50.728;7.108;2023-06-10T04:27:51;192.43;;;146.40;;
5465;SDS011;2755;50.728;7.108;2023-06-10T04:30:17;189.37;;;144.30;;
5465;SDS011;2755;50.728;7.108;2023-06-10T04:32:43;191.63;;;146.70;;
5465;SDS011;2755;50.728;7.108;2023-06-10T04:35:11;187.43;;;144.27;;
5465;SDS011;2755;50.728;7.108;2023-06-10T04:37:37;189.57;;;145.20;;
5465;SDS011;2755;50.728;7.108;2023-06-10T04:40:03;187.60;;;144.50;;
5465;SDS011;2755;50.728;7.108;2023-06-10T04:42:30;194.50;;;152.20;;
5465;SDS011;2755;50.728;7.108;2023-06-10T04:44:56;193.17;;;150.90;;
5465;SDS011;2755;50.728;7.108;2023-06-10T04:47:22;200.23;;;161.17;;
5465;SDS011;2755;50.728;7.108;2023-06-10T04:49:48;198.00;;;157.67;;
5465;SDS011;2755;50.728;7.108;2023-06-10T04:52:14;187.93;;;142.57;;
5465;SDS011;2755;50.728;7.108;2023-06-10T04:54:39;183.20;;;136.63;;
5465;SDS011;2755;50.728;7.108;2023-06-10T04:57:06;187.87;;;143.63;;
5465;SDS011;2755;50.728;7.108;2023-06-10T04:59:32;192.07;;;148.97;;
5465;SDS011;2755;50.728;7.108;2023-06-10T05:02:02;210.63;;;187.67;;
5465;SDS011;2755;50.728;7.108;2023-06-10T05:04:28;247.63;;;222.60;;
5465;SDS011;2755;50.728;7.108;2023-06-10T05:06:54;288.83;;;260.57;;
5465;SDS011;2755;50.728;7.108;2023-06-10T05:09:20;284.23;;;255.93;;
5465;SDS011;2755;50.728;7.108;2023-06-10T05:11:46;281.77;;;254.57;;
5465;SDS011;2755;50.728;7.108;2023-06-10T05:14:12;255.50;;;229.43;;
5465;SDS011;2755;50.728;7.108;2023-06-10T05:16:38;209.03;;;182.97;;
5465;SDS011;2755;50.728;7.108;2023-06-10T05:19:04;242.80;;;217.50;;
5465;SDS011;2755;50.728;7.108;2023-06-10T05:21:29;282.37;;;254.47;;
5465;SDS011;2755;50.728;7.108;2023-06-10T05:23:55;262.50;;;236.10;;
5465;SDS011;2755;50.728;7.108;2023-06-10T05:26:21;227.53;;;202.90;;
5465;SDS011;2755;50.728;7.108;2023-06-10T05:28:47;233.83;;;209.17;;
5465;SDS011;2755;50.728;7.108;2023-06-10T05:31:12;245.33;;;219.97;;
5465;SDS011;2755;50.728;7.108;2023-06-10T05:33:39;269.77;;;242.80;;
5465;SDS011;2755;50.728;7.108;2023-06-10T05:36:05;293.47;;;265.37;;
5465;SDS011;2755;50.728;7.108;2023-06-10T05:38:32;298.70;;;270.53;;
5465;SDS011;2755;50.728;7.108;2023-06-10T05:43:28;260.63;;;233.77;;
5465;SDS011;2755;50.728;7.108;2023-06-10T05:45:54;297.37;;;268.13;;
5465;SDS011;2755;50.728;7.108;2023-06-10T05:48:19;257.73;;;231.77;;
5465;SDS011;2755;50.728;7.108;2023-06-10T05:50:46;214.63;;;191.07;;
5465;SDS011;2755;50.728;7.108;2023-06-10T05:53:14;211.67;;;188.47;;
5465;SDS011;2755;50.728;7.108;2023-06-10T05:55:43;199.20;;;163.77;;
5465;SDS011;2755;50.728;7.108;2023-06-10T05:58:10;180.73;;;131.90;;
5465;SDS011;2755;50.728;7.108;2023-06-10T06:00:39;175.73;;;126.93;;
5465;SDS011;2755;50.728;7.108;2023-06-10T06:03:06;186.83;;;146.67;;
5465;SDS011;2755;50.728;7.108;2023-06-10T06:05:33;186.73;;;147.80;;
5465;SDS011;2755;50.728;7.108;2023-06-10T06:08:01;188.53;;;150.33;;
5465;SDS011;2755;50.728;7.108;2023-06-10T06:10:41;200.70;;;166.23;;
5465;SDS011;2755;50.728;7.108;2023-06-10T06:13:07;203.77;;;165.93;;
5465;SDS011;2755;50.728;7.108;2023-06-10T06:15:32;215.40;;;175.80;;
5465;SDS011;2755;50.728;7.108;2023-06-10T06:17:58;268.80;;;240.97;;
5465;SDS011;2755;50.728;7.108;2023-06-10T06:20:24;342.63;;;309.77;;
5465;SDS011;2755;50.728;7.108;2023-06-10T06:22:49;396.90;;;360.57;;
5465;SDS011;2755;50.728;7.108;2023-06-10T06:25:15;321.27;;;290.50;;
5465;SDS011;2755;50.728;7.108;2023-06-10T06:27:41;224.43;;;188.13;;
5465;SDS011;2755;50.728;7.108;2023-06-10T06:30:07;220.93;;;191.50;;
5465;SDS011;2755;50.728;7.108;2023-06-10T06:32:33;232.83;;;207.63;;
5465;SDS011;2755;50.728;7.108;2023-06-10T06:34:58;212.67;;;189.27;;
5465;SDS011;2755;50.728;7.108;2023-06-10T06:37:24;212.07;;;188.33;;
5465;SDS011;2755;50.728;7.108;2023-06-10T06:39:51;216.73;;;188.27;;
5465;SDS011;2755;50.728;7.108;2023-06-10T06:42:17;211.77;;;185.70;;
5465;SDS011;2755;50.728;7.108;2023-06-10T06:44:44;208.03;;;179.83;;
5465;SDS011;2755;50.728;7.108;2023-06-10T06:47:10;226.93;;;202.87;;
5465;SDS011;2755;50.728;7.108;2023-06-10T06:49:35;218.43;;;194.33;;
5465;SDS011;2755;50.728;7.108;2023-06-10T06:52:01;206.77;;;168.00;;
5465;SDS011;2755;50.728;7.108;2023-06-10T06:54:27;214.33;;;184.63;;
5465;SDS011;2755;50.728;7.108;2023-06-10T06:56:55;244.13;;;218.70;;
5465;SDS011;2755;50.728;7.108;2023-06-10T06:59:20;246.00;;;219.83;;
5465;SDS011;2755;50.728;7.108;2023-06-10T07:01:46;248.10;;;221.70;;
5465;SDS011;2755;50.728;7.108;2023-06-10T07:04:14;239.57;;;213.57;;
5465;SDS011;2755;50.728;7.108;2023-06-10T07:06:50;240.57;;;215.40;;
5465;SDS011;2755;50.728;7.108;2023-06-10T07:09:16;222.40;;;198.40;;
5465;SDS011;2755;50.728;7.108;2023-06-10T07:11:41;198.60;;;159.83;;
5465;SDS011;2755;50.728;7.108;2023-06-10T07:14:07;195.57;;;156.60;;
5465;SDS011;2755;50.728;7.108;2023-06-10T07:16:33;197.23;;;153.17;;
5465;SDS011;2755;50.728;7.108;2023-06-10T07:18:59;203.33;;;160.83;;
5465;SDS011;2755;50.728;7.108;2023-06-10T07:21:24;191.70;;;143.10;;
5465;SDS011;2755;50.728;7.108;2023-06-10T07:23:50;187.03;;;134.63;;
5465;SDS011;2755;50.728;7.108;2023-06-10T07:26:18;186.40;;;135.57;;
5465;SDS011;2755;50.728;7.108;2023-06-10T07:28:44;189.57;;;145.63;;
5465;SDS011;2755;50.728;7.108;2023-06-10T07:31:10;190.27;;;143.03;;
5465;SDS011;2755;50.728;7.108;2023-06-10T07:33:36;188.77;;;139.33;;
5465;SDS011;2755;50.728;7.108;2023-06-10T07:36:04;198.17;;;153.53;;
5465;SDS011;2755;50.728;7.108;2023-06-10T07:38:30;208.27;;;164.77;;
5465;SDS011;2755;50.728;7.108;2023-06-10T07:40:56;215.30;;;177.93;;
5465;SDS011;2755;50.728;7.108;2023-06-10T07:43:21;206.27;;;164.83;;
5465;SDS011;2755;50.728;7.108;2023-06-10T07:45:47;203.27;;;163.63;;
5465;SDS011;2755;50.728;7.108;2023-06-10T07:48:13;200.37;;;160.13;;
5465;SDS011;2755;50.728;7.108;2023-06-10T07:50:38;206.53;;;170.83;;
5465;SDS011;2755;50.728;7.108;2023-06-10T07:53:05;249.43;;;222.93;;
5465;SDS011;2755;50.728;7.108;2023-06-10T07:55:30;238.10;;;212.30;;
5465;SDS011;2755;50.728;7.108;2023-06-10T07:57:56;251.23;;;224.23;;
5465;SDS011;2755;50.728;7.108;2023-06-10T08:00:22;261.67;;;234.07;;
5465;SDS011;2755;50.728;7.108;2023-06-10T08:02:47;250.07;;;223.37;;
5465;SDS011;2755;50.728;7.108;2023-06-10T08:05:13;232.13;;;207.13;;
5465;SDS011;2755;50.728;7.108;2023-06-10T08:07:39;225.73;;;201.57;;
5465;SDS011;2755;50.728;7.108;2023-06-10T08:10:05;201.97;;;169.90;;
5465;SDS011;2755;50.728;7.108;2023-06-10T08:12:31;196.87;;;162.17;;
5465;SDS011;2755;50.728;7.108;2023-06-10T08:14:58;209.43;;;185.57;;
5465;SDS011;2755;50.728;7.108;2023-06-10T08:17:24;253.93;;;227.87;;
5465;SDS011;2755;50.728;7.108;2023-06-10T08:19:50;275.10;;;247.50;;
5465;SDS011;2755;50.728;7.108;2023-06-10T08:22:15;254.73;;;228.63;;
5465;SDS011;2755;50.728;7.108;2023-06-10T08:24:41;205.07;;;175.83;;
5465;SDS011;2755;50.728;7.108;2023-06-10T08:27:07;209.50;;;186.63;;
5465;SDS011;2755;50.728;7.108;2023-06-10T08:29:33;203.03;;;174.23;;
5465;SDS011;2755;50.728;7.108;2023-06-10T08:31:59;205.63;;;179.17;;
5465;SDS011;2755;50.728;7.108;2023-06-10T08:34:25;205.57;;;175.37;;
5465;SDS011;2755;50.728;7.108;2023-06-10T08:36:51;215.57;;;192.07;;
5465;SDS011;2755;50.728;7.108;2023-06-10T08:39:18;229.43;;;205.07;;
5465;SDS011;2755;50.728;7.108;2023-06-10T08:41:46;215.07;;;191.37;;
5465;SDS011;2755;50.728;7.108;2023-06-10T08:44:25;190.70;;;148.20;;
5465;SDS011;2755;50.728;7.108;2023-06-10T08:46:53;184.90;;;134.60;;
5465;SDS011;2755;50.728;7.108;2023-06-10T08:49:23;185.77;;;135.27;;
5465;SDS011;2755;50.728;7.108;2023-06-10T08:51:55;188.47;;;136.10;;
5465;SDS011;2755;50.728;7.108;2023-06-10T08:54:28;206.53;;;173.00;;
5465;SDS011;2755;50.728;7.108;2023-06-10T08:56:57;211.80;;;184.37;;
5465;SDS011;2755;50.728;7.108;2023-06-10T08:59:25;197.47;;;153.60;;
5465;SDS011;2755;50.728;7.108;2023-06-10T09:01:51;199.73;;;157.37;;
5465;SDS011;2755;50.728;7.108;2023-06-10T09:04:18;203.90;;;162.43;;
5465;SDS011;2755;50.728;7.108;2023-06-10T09:06:45;222.70;;;197.33;;
5465;SDS011;2755;50.728;7.108;2023-06-10T09:09:11;259.63;;;232.83;;
5465;SDS011;2755;50.728;7.108;2023-06-10T09:11:38;261.60;;;234.73;;
5465;SDS011;2755;50.728;7.108;2023-06-10T09:14:04;281.23;;;252.93;;
5465;SDS011;2755;50.728;7.108;2023-06-10T09:16:30;289.17;;;260.47;;
5465;SDS011;2755;50.728;7.108;2023-06-10T09:18:56;273.43;;;245.83;;
5465;SDS011;2755;50.728;7.108;2023-06-10T09:21:22;289.70;;;261.13;;
5465;SDS011;2755;50.728;7.108;2023-06-10T09:23:48;281.07;;;253.03;;
5465;SDS011;2755;50.728;7.108;2023-06-10T09:26:14;251.47;;;225.07;;
5465;SDS011;2755;50.728;7.108;2023-06-10T09:28:44;250.07;;;223.77;;
5465;SDS011;2755;50.728;7.108;2023-06-10T09:31:12;245.07;;;218.57;;
5465;SDS011;2755;50.728;7.108;2023-06-10T09:33:39;255.00;;;228.20;;
5465;SDS011;2755;50.728;7.108;2023-06-10T09:36:05;247.33;;;220.63;;
5465;SDS011;2755;50.728;7.108;2023-06-10T09:38:31;250.63;;;223.77;;
5465;SDS011;2755;50.728;7.108;2023-06-10T09:40:59;249.67;;;222.90;;
5465;SDS011;2755;50.728;7.108;2023-06-10T09:43:47;272.13;;;244.17;;
5465;SDS011;2755;50.728;7.108;2023-06-10T09:46:14;277.77;;;249.50;;
5465;SDS011;2755;50.728;7.108;2023-06-10T09:48:45;276.93;;;248.97;;
5465;SDS011;2755;50.728;7.108;2023-06-10T09:51:12;275.90;;;248.07;;
5465;SDS011;2755;50.728;7.108;2023-06-10T09:53:39;293.00;;;264.37;;
5465;SDS011;2755;50.728;7.108;2023-06-10T09:56:05;281.30;;;252.93;;
5465;SDS011;2755;50.728;7.108;2023-06-10T09:58:37;242.13;;;216.33;;
5465;SDS011;2755;50.728;7.108;2023-06-10T10:01:10;230.57;;;205.60;;
5465;SDS011;2755;50.728;7.108;2023-06-10T10:03:43;222.17;;;197.67;;
5465;SDS011;2755;50.728;7.108;2023-06-10T10:06:11;202.20;;;168.10;;
5465;SDS011;2755;50.728;7.108;2023-06-10T10:08:37;192.67;;;154.97;;
5465;SDS011;2755;50.728;7.108;2023-06-10T10:11:02;191.27;;;152.70;;
5465;SDS011;2755;50.728;7.108;2023-06-10T10:13:28;201.90;;;173.10;;
5465;SDS011;2755;50.728;7.108;2023-06-10T10:15:56;218.47;;;194.67;;
5465;SDS011;2755;50.728;7.108;2023-06-10T10:18:24;223.87;;;199.43;;
5465;SDS011;2755;50.728;7.108;2023-06-10T10:20:55;221.70;;;197.30;;
5465;SDS011;2755;50.728;7.108;2023-06-10T10:23:23;215.60;;;191.73;;
5465;SDS011;2755;50.728;7.108;2023-06-10T10:25:53;215.73;;;191.07;;
5465;SDS011;2755;50.728;7.108;2023-06-10T10:28:20;217.33;;;187.60;;
5465;SDS011;2755;50.728;7.108;2023-06-10T10:30:49;232.83;;;207.23;;
5465;SDS011;2755;50.728;7.108;2023-06-10T10:33:22;234.83;;;209.17;;
5465;SDS011;2755;50.728;7.108;2023-06-10T10:35:58;230.77;;;205.40;;
5465;SDS011;2755;50.728;7.108;2023-06-10T10:38:24;224.43;;;197.03;;
5465;SDS011;2755;50.728;7.108;2023-06-10T10:40:50;216.47;;;184.77;;
5465;SDS011;2755;50.728;7.108;2023-06-10T10:43:16;220.60;;;195.83;;
5465;SDS011;2755;50.728;7.108;2023-06-10T10:45:45;220.63;;;196.30;;
5465;SDS011;2755;50.728;7.108;2023-06-10T10:48:11;218.13;;;193.90;;
5465;SDS011;2755;50.728;7.108;2023-06-10T10:50:38;226.43;;;201.70;;
5465;SDS011;2755;50.728;7.108;2023-06-10T10:53:05;217.93;;;189.13;;
5465;SDS011;2755;50.728;7.108;2023-06-10T10:55:32;219.33;;;194.27;;
5465;SDS011;2755;50.728;7.108;2023-06-10T10:58:07;222.07;;;197.50;;
5465;SDS011;2755;50.728;7.108;2023-06-10T11:00:35;189.10;;;146.43;;
5465;SDS011;2755;50.728;7.108;2023-06-10T11:03:13;207.07;;;178.63;;
5465;SDS011;2755;50.728;7.108;2023-06-10T11:05:41;220.33;;;188.10;;
5465;SDS011;2755;50.728;7.108;2023-06-10T11:08:09;245.20;;;218.27;;
5465;SDS011;2755;50.728;7.108;2023-06-10T11:13:06;236.50;;;210.43;;
5465;SDS011;2755;50.728;7.108;2023-06-10T11:15:39;238.70;;;213.07;;
5465;SDS011;2755;50.728;7.108;2023-06-10T11:23:08;191.07;;;138.67;;
5465;SDS011;2755;50.728;7.108;2023-06-10T11:25:39;193.27;;;143.43;;
5465;SDS011;2755;50.728;7.108;2023-06-10T11:28:27;190.97;;;140.57;;
5465;SDS011;2755;50.728;7.108;2023-06-10T11:30:56;199.60;;;154.87;;
5465;SDS011;2755;50.728;7.108;2023-06-10T11:33:23;233.87;;;204.60;;
5465;SDS011;2755;50.728;7.108;2023-06-10T11:35:50;239.03;;;212.97;;
5465;SDS011;2755;50.728;7.108;2023-06-10T11:38:15;185.10;;;140.80;;
5465;SDS011;2755;50.728;7.108;2023-06-10T11:40:46;168.93;;;114.87;;
5465;SDS011;2755;50.728;7.108;2023-06-10T11:43:12;197.70;;;152.30;;
5465;SDS011;2755;50.728;7.108;2023-06-10T11:45:40;193.10;;;146.97;;
5465;SDS011;2755;50.728;7.108;2023-06-10T11:50:35;207.27;;;169.90;;
5465;SDS011;2755;50.728;7.108;2023-06-10T11:53:02;192.63;;;152.40;;
5465;SDS011;2755;50.728;7.108;2023-06-10T11:58:19;166.70;;;106.97;;
5465;SDS011;2755;50.728;7.108;2023-06-10T12:00:55;177.47;;;120.03;;
5465;SDS011;2755;50.728;7.108;2023-06-10T12:03:26;206.87;;;174.43;;
5465;SDS011;2755;50.728;7.108;2023-06-10T12:05:58;241.03;;;215.47;;
5465;SDS011;2755;50.728;7.108;2023-06-10T12:08:29;191.30;;;146.13;;
5465;SDS011;2755;50.728;7.108;2023-06-10T12:10:55;174.37;;;119.83;;
5465;SDS011;2755;50.728;7.108;2023-06-10T12:13:21;179.50;;;123.90;;
5465;SDS011;2755;50.728;7.108;2023-06-10T12:15:48;184.23;;;131.73;;
5465;SDS011;2755;50.728;7.108;2023-06-10T12:18:18;190.50;;;141.10;;
5465;SDS011;2755;50.728;7.108;2023-06-10T12:20:48;198.47;;;152.80;;
5465;SDS011;2755;50.728;7.108;2023-06-10T12:23:14;229.57;;;204.47;;
5465;SDS011;2755;50.728;7.108;2023-06-10T12:25:51;223.40;;;198.90;;
5465;SDS011;2755;50.728;7.108;2023-06-10T12:28:20;212.23;;;184.23;;
5465;SDS011;2755;50.728;7.108;2023-06-10T12:30:49;196.20;;;153.00;;
5465;SDS011;2755;50.728;7.108;2023-06-10T12:33:21;227.23;;;202.40;;
5465;SDS011;2755;50.728;7.108;2023-06-10T12:35:48;196.73;;;156.47;;
5465;SDS011;2755;50.728;7.108;2023-06-10T12:38:14;185.33;;;137.50;;
5465;SDS011;2755;50.728;7.108;2023-06-10T12:40:47;197.03;;;157.33;;
5465;SDS011;2755;50.728;7.108;2023-06-10T12:43:12;189.23;;;142.93;;
5465;SDS011;2755;50.728;7.108;2023-06-10T12:45:39;184.90;;;134.30;;
5465;SDS011;2755;50.728;7.108;2023-06-10T12:48:10;180.80;;;128.77;;
5465;SDS011;2755;50.728;7.108;2023-06-10T12:50:41;171.00;;;110.97;;
5465;SDS011;2755;50.728;7.108;2023-06-10T12:53:08;168.40;;;108.70;;
5465;SDS011;2755;50.728;7.108;2023-06-10T12:55:36;175.63;;;121.30;;
5465;SDS011;2755;50.728;7.108;2023-06-10T12:58:02;176.63;;;123.17;;
5465;SDS011;2755;50.728;7.108;2023-06-10T13:00:28;172.07;;;114.17;;
5465;SDS011;2755;50.728;7.108;2023-06-10T13:02:55;178.57;;;125.10;;
5465;SDS011;2755;50.728;7.108;2023-06-10T13:05:21;177.67;;;124.07;;
5465;SDS011;2755;50.728;7.108;2023-06-10T13:07:47;179.13;;;127.80;;
5465;SDS011;2755;50.728;7.108;2023-06-10T13:10:13;170.70;;;110.53;;
5465;SDS011;2755;50.728;7.108;2023-06-10T13:12:39;181.00;;;128.50;;
5465;SDS011;2755;50.728;7.108;2023-06-10T13:15:06;182.53;;;132.13;;
5465;SDS011;2755;50.728;7.108;2023-06-10T13:17:32;246.67;;;220.87;;
5465;SDS011;2755;50.728;7.108;2023-06-10T13:19:59;177.13;;;126.90;;
5465;SDS011;2755;50.728;7.108;2023-06-10T13:22:24;177.03;;;125.13;;
5465;SDS011;2755;50.728;7.108;2023-06-10T13:24:51;183.30;;;136.60;;
5465;SDS011;2755;50.728;7.108;2023-06-10T13:27:17;178.23;;;129.00;;
5465;SDS011;2755;50.728;7.108;2023-06-10T13:29:43;174.03;;;116.17;;
5465;SDS011;2755;50.728;7.108;2023-06-10T13:32:09;190.77;;;140.63;;
5465;SDS011;2755;50.728;7.108;2023-06-10T13:34:37;182.80;;;128.00;;
5465;SDS011;2755;50.728;7.108;2023-06-10T13:37:05;188.33;;;134.53;;
5465;SDS011;2755;50.728;7.108;2023-06-10T13:39:31;188.60;;;134.27;;
5465;SDS011;2755;50.728;7.108;2023-06-10T13:41:57;190.43;;;135.53;;
5465;SDS011;2755;50.728;7.108;2023-06-10T13:44:23;213.68;;;160.02;;
5465;SDS011;2755;50.728;7.108;2023-06-10T13:46:49;199.97;;;154.50;;
5465;SDS011;2755;50.728;7.108;2023-06-10T13:49:15;187.43;;;136.63;;
5465;SDS011;2755;50.728;7.108;2023-06-10T13:51:41;193.30;;;141.23;;
5465;SDS011;2755;50.728;7.108;2023-06-10T13:54:07;211.63;;;175.30;;
5465;SDS011;2755;50.728;7.108;2023-06-10T13:56:34;215.17;;;189.40;;
5465;SDS011;2755;50.728;7.108;2023-06-10T13:59:04;205.97;;;174.07;;
5465;SDS011;2755;50.728;7.108;2023-06-10T14:01:30;204.13;;;166.63;;
5465;SDS011;2755;50.728;7.108;2023-06-10T14:04:00;203.43;;;163.37;;
5465;SDS011;2755;50.728;7.108;2023-06-10T14:06:26;202.07;;;156.27;;
5465;SDS011;2755;50.728;7.108;2023-06-10T14:08:52;194.03;;;148.13;;
5465;SDS011;2755;50.728;7.108;2023-06-10T14:11:20;201.00;;;160.07;;
5465;SDS011;2755;50.728;7.108;2023-06-10T14:13:46;197.67;;;155.93;;
5465;SDS011;2755;50.728;7.108;2023-06-10T14:16:12;195.77;;;155.03;;
5465;SDS011;2755;50.728;7.108;2023-06-10T14:18:39;192.00;;;146.57;;
5465;SDS011;2755;50.728;7.108;2023-06-10T14:21:05;191.97;;;147.33;;
5465;SDS011;2755;50.728;7.108;2023-06-10T14:23:31;189.70;;;143.30;;
5465;SDS011;2755;50.728;7.108;2023-06-10T14:25:59;193.03;;;149.60;;
5465;SDS011;2755;50.728;7.108;2023-06-10T14:28:28;191.93;;;146.13;;
5465;SDS011;2755;50.728;7.108;2023-06-10T14:30:54;191.17;;;145.10;;
5465;SDS011;2755;50.728;7.108;2023-06-10T14:33:22;195.03;;;150.93;;
5465;SDS011;2755;50.728;7.108;2023-06-10T14:35:48;191.57;;;146.27;;
5465;SDS011;2755;50.728;7.108;2023-06-10T14:38:14;189.83;;;149.37;;